Time;durP1;ratioP1;P1;durP2;ratioP2;P2;SDS_P1;SDS_P2;PMS_P1;PMS_P2;Temp;Humidity;BMP_temperature;BMP_pressure;BME280_temperature;BME280_humidity;BME280_pressure;Samples;Min_cycle;Max_cycle;Signal;HPM_P1;HPM_P2
2022/04/26 03:37:49;;;;;;;0.30;0.20;;;6.80;99.90;;;;;;5127475;27;20440;-90
2022/04/26 03:40:16;;;;;;;0.40;0.40;;;6.80;99.90;;;;;;5106869;27;20464;-90
2022/04/26 03:42:43;;;;;;;0.30;0.10;;;6.70;99.90;;;;;;5108774;27;20522;-90
2022/04/26 03:45:10;;;;;;;0.60;0.60;;;6.60;99.90;;;;;;5106971;27;20550;-90
2022/04/26 03:47:37;;;;;;;0.57;0.57;;;6.60;99.90;;;;;;5110064;27;20519;-91
2022/04/26 03:50:06;;;;;;;0.30;0.20;;;6.70;99.90;;;;;;5107850;27;20537;-90
2022/04/26 03:52:33;;;;;;;0.30;0.10;;;6.70;99.90;;;;;;5112999;27;20530;-90
2022/04/26 03:55:03;;;;;;;0.30;0.20;;;6.80;99.90;;;;;;5113514;27;20510;-90
2022/04/26 03:57:30;;;;;;;0.30;0.10;;;6.80;99.90;;;;;;5127342;27;20533;-90
2022/04/26 03:59:57;;;;;;;0.87;0.73;;;6.80;99.90;;;;;;5109811;27;20888;-90
2022/04/26 04:02:24;;;;;;;2.43;0.70;;;6.90;99.90;;;;;;5113306;27;20503;-91
2022/04/26 04:04:51;;;;;;;0.30;0.27;;;6.90;99.90;;;;;;5109480;27;20481;-91
2022/04/26 04:07:19;;;;;;;0.80;0.80;;;6.90;99.90;;;;;;5100765;27;21935;-90
2022/04/26 04:09:47;;;;;;;1.17;1.07;;;6.90;99.90;;;;;;5109225;27;20514;-91
2022/04/26 04:12:13;;;;;;;0.37;0.27;;;6.80;99.90;;;;;;5106560;27;20818;-91
2022/04/26 04:14:40;;;;;;;0.60;0.60;;;6.80;99.90;;;;;;5104987;27;20464;-90
2022/04/26 04:17:08;;;;;;;0.40;0.20;;;6.80;99.90;;;;;;5113394;27;20464;-90
2022/04/26 04:19:35;;;;;;;0.30;0.20;;;6.80;99.90;;;;;;5111338;27;20492;-90
2022/04/26 04:22:02;;;;;;;0.30;0.17;;;6.80;99.90;;;;;;5112351;27;20586;-91
2022/04/26 04:24:30;;;;;;;0.30;0.20;;;6.70;99.90;;;;;;5109061;27;20493;-90
2022/04/26 04:26:57;;;;;;;0.40;0.30;;;6.80;99.90;;;;;;5114042;27;20924;-91
2022/04/26 04:29:24;;;;;;;0.40;0.40;;;6.70;99.90;;;;;;5110127;27;20484;-90
2022/04/26 04:31:51;;;;;;;0.60;0.60;;;6.70;99.90;;;;;;5116505;27;20857;-91
2022/04/26 04:34:18;;;;;;;0.30;0.20;;;6.70;99.90;;;;;;5106818;27;20461;-90
2022/04/26 04:36:45;;;;;;;0.30;0.10;;;6.70;99.90;;;;;;5106499;28;20917;-90
2022/04/26 04:39:13;;;;;;;0.30;0.10;;;6.70;99.90;;;;;;5109969;27;20454;-91
2022/04/26 04:41:41;;;;;;;0.30;0.10;;;6.60;99.90;;;;;;5106654;28;20461;-90
2022/04/26 04:44:08;;;;;;;0.60;0.30;;;6.60;99.90;;;;;;5104082;27;20584;-91
2022/04/26 04:46:35;;;;;;;0.30;0.10;;;6.60;99.90;;;;;;5110057;27;20523;-90
2022/04/26 04:49:02;;;;;;;0.70;0.60;;;6.60;99.90;;;;;;5106451;28;20530;-91
2022/04/26 04:51:29;;;;;;;0.30;0.10;;;6.60;99.90;;;;;;5107494;28;20497;-91
2022/04/26 04:53:57;;;;;;;0.30;0.10;;;6.70;99.90;;;;;;5108930;28;20593;-91
2022/04/26 04:56:24;;;;;;;0.40;0.40;;;6.70;99.90;;;;;;5106748;28;21012;-90
2022/04/26 04:58:53;;;;;;;3.60;0.50;;;6.70;99.90;;;;;;5110756;28;20468;-90
2022/04/26 05:01:20;;;;;;;0.40;0.20;;;6.80;99.90;;;;;;5110869;28;20453;-91
2022/04/26 05:03:47;;;;;;;0.30;0.20;;;6.80;99.90;;;;;;5118007;28;20464;-90
2022/04/26 05:06:15;;;;;;;11.60;2.77;;;7.00;99.90;;;;;;5109940;28;20961;-91
2022/04/26 05:08:43;;;;;;;1.07;0.40;;;7.00;99.90;;;;;;5112637;28;20461;-90
2022/04/26 05:11:11;;;;;;;0.30;0.20;;;7.10;99.90;;;;;;5118004;28;20523;-90
2022/04/26 05:13:38;;;;;;;0.40;0.37;;;7.10;99.90;;;;;;5114847;28;21080;-89
2022/04/26 05:16:07;;;;;;;0.30;0.20;;;7.20;99.90;;;;;;5113474;28;20459;-90
2022/04/26 05:18:33;;;;;;;0.30;0.10;;;7.40;99.90;;;;;;5106880;28;20460;-90
2022/04/26 05:21:01;;;;;;;0.57;0.57;;;7.40;99.90;;;;;;5109575;28;20543;-90
2022/04/26 05:26:12;;;;;;;0.30;0.10;;;7.60;99.90;;;;;;5112146;28;20813;-90
2022/04/26 05:28:39;;;;;;;0.30;0.17;;;7.60;99.90;;;;;;5108028;27;20461;-90
2022/04/26 05:31:08;;;;;;;0.30;0.20;;;7.60;99.90;;;;;;5109324;28;20469;-90
2022/04/26 05:33:35;;;;;;;1.03;0.93;;;7.60;99.90;;;;;;5109553;28;20817;-90
2022/04/26 05:36:02;;;;;;;0.70;0.30;;;7.60;99.90;;;;;;5113069;28;20466;-90
2022/04/26 05:38:30;;;;;;;0.43;0.43;;;7.60;99.90;;;;;;5106814;28;20464;-90
2022/04/26 05:40:56;;;;;;;0.30;0.20;;;7.70;99.90;;;;;;5105598;28;20461;-90
2022/04/26 05:43:24;;;;;;;0.30;0.20;;;7.80;99.90;;;;;;5105906;28;20522;-91
2022/04/26 05:45:51;;;;;;;0.60;0.60;;;7.90;99.90;;;;;;5108343;28;20482;-91
2022/04/26 05:48:19;;;;;;;0.30;0.20;;;8.30;99.90;;;;;;5110128;27;20542;-91
2022/04/26 05:50:46;;;;;;;0.40;0.40;;;8.50;99.90;;;;;;5115479;27;20457;-91
2022/04/26 05:53:13;;;;;;;0.30;0.20;;;8.70;99.90;;;;;;5110695;27;20898;-91
2022/04/26 05:55:40;;;;;;;0.40;0.30;;;8.70;99.90;;;;;;5124956;27;20629;-91
2022/04/26 05:58:10;;;;;;;0.63;0.30;;;8.60;99.90;;;;;;5136130;27;20449;-93
2022/04/26 06:00:37;;;;;;;0.30;0.20;;;8.50;99.90;;;;;;5125606;27;20457;-90
2022/04/26 06:03:04;;;;;;;1.17;0.50;;;8.50;99.90;;;;;;5118669;27;21049;-90
2022/04/26 06:05:32;;;;;;;0.80;0.80;;;8.60;99.90;;;;;;5114776;27;20925;-91
2022/04/26 06:07:59;;;;;;;0.30;0.20;;;8.70;99.90;;;;;;5113172;27;20850;-90
2022/04/26 06:10:26;;;;;;;0.30;0.20;;;8.60;99.90;;;;;;5107526;27;20857;-92
2022/04/26 06:12:53;;;;;;;0.30;0.20;;;8.80;99.90;;;;;;5111104;27;20477;-92
2022/04/26 06:15:21;;;;;;;0.93;0.93;;;8.80;99.90;;;;;;5106300;28;20465;-91
2022/04/26 06:17:48;;;;;;;0.30;0.20;;;9.10;99.90;;;;;;5109955;27;21075;-90
2022/04/26 06:20:16;;;;;;;0.30;0.20;;;9.30;99.90;;;;;;5105843;27;20477;-90
2022/04/26 06:22:44;;;;;;;1.27;0.87;;;9.30;99.90;;;;;;5110387;27;20469;-91
2022/04/26 06:25:12;;;;;;;0.40;0.30;;;9.50;99.90;;;;;;5111197;27;20481;-91
2022/04/26 06:27:39;;;;;;;0.30;0.20;;;9.70;99.90;;;;;;5115082;27;20979;-91
2022/04/26 06:30:06;;;;;;;0.60;0.40;;;9.80;99.90;;;;;;5110251;27;20461;-91
2022/04/26 06:32:33;;;;;;;0.30;0.10;;;10.10;99.90;;;;;;5108001;27;20457;-91
2022/04/26 06:35:01;;;;;;;0.40;0.20;;;10.10;99.90;;;;;;5111370;27;20482;-91
2022/04/26 06:37:28;;;;;;;1.03;1.03;;;10.10;99.90;;;;;;5118799;27;20865;-91
2022/04/26 06:39:56;;;;;;;0.50;0.50;;;10.20;99.90;;;;;;5116348;27;20985;-89
2022/04/26 06:42:23;;;;;;;1.13;1.13;;;10.40;99.90;;;;;;5115268;27;20452;-88
2022/04/26 06:44:50;;;;;;;0.50;0.40;;;10.30;99.90;;;;;;5119581;27;20473;-89
2022/04/26 06:47:17;;;;;;;0.30;0.27;;;10.20;99.90;;;;;;5107032;27;20465;-88
2022/04/26 06:49:44;;;;;;;0.30;0.20;;;10.40;99.90;;;;;;5104944;27;20481;-89
2022/04/26 06:52:11;;;;;;;0.30;0.20;;;10.50;99.90;;;;;;5109703;27;20640;-88
2022/04/26 06:54:38;;;;;;;0.30;0.20;;;10.50;99.90;;;;;;5107823;27;20461;-88
2022/04/26 06:57:07;;;;;;;0.50;0.40;;;10.50;99.90;;;;;;5105248;27;20514;-88
2022/04/26 06:59:34;;;;;;;0.30;0.20;;;10.40;99.90;;;;;;5103665;27;20462;-88
2022/04/26 07:02:02;;;;;;;2.40;1.13;;;10.30;99.90;;;;;;5107668;27;20522;-90
2022/04/26 07:04:29;;;;;;;0.50;0.30;;;10.50;99.90;;;;;;5109288;27;20449;-89
2022/04/26 07:06:58;;;;;;;0.77;0.63;;;10.50;99.90;;;;;;5111011;27;21131;-90
2022/04/26 07:09:25;;;;;;;0.47;0.33;;;10.60;99.90;;;;;;5109020;27;20462;-90
2022/04/26 07:12:01;;;;;;;0.40;0.40;;;10.70;99.90;;;;;;5109699;27;20515;-91
2022/04/26 07:14:30;;;;;;;0.63;0.43;;;10.90;99.90;;;;;;5108632;27;20487;-89
2022/04/26 07:17:00;;;;;;;0.93;0.40;;;10.80;99.90;;;;;;5109640;27;20812;-89
2022/04/26 07:19:35;;;;;;;2.47;0.83;;;10.50;99.90;;;;;;5105481;27;20986;-90
2022/04/26 07:22:08;;;;;;;0.90;0.30;;;10.50;99.90;;;;;;5111507;27;20518;-91
2022/04/26 07:24:35;;;;;;;0.50;0.30;;;10.70;99.90;;;;;;5108586;27;20585;-90
2022/04/26 07:27:03;;;;;;;3.20;0.40;;;10.60;99.90;;;;;;5109921;27;20497;-89
2022/04/26 07:29:31;;;;;;;1.20;1.20;;;10.60;99.90;;;;;;5103940;27;20453;-89
2022/04/26 07:31:58;;;;;;;0.30;0.20;;;10.60;99.90;;;;;;5108410;27;20842;-89
2022/04/26 07:34:25;;;;;;;0.80;0.30;;;10.80;99.90;;;;;;5106079;27;20549;-89
2022/04/26 07:36:53;;;;;;;0.37;0.30;;;10.90;99.90;;;;;;5109326;27;20459;-90
2022/04/26 07:39:20;;;;;;;0.40;0.40;;;10.70;99.90;;;;;;5110823;27;20467;-88
2022/04/26 07:41:48;;;;;;;0.60;0.30;;;10.90;99.90;;;;;;5105531;27;20576;-88
2022/04/26 07:44:16;;;;;;;0.40;0.20;;;10.70;99.90;;;;;;5105999;27;20557;-89
2022/04/26 07:46:47;;;;;;;0.60;0.60;;;10.60;99.90;;;;;;5109908;27;20549;-90
2022/04/26 07:49:15;;;;;;;0.30;0.20;;;10.90;99.90;;;;;;5102781;27;20455;-88
2022/04/26 07:51:43;;;;;;;0.40;0.20;;;11.00;99.90;;;;;;5108819;27;20543;-89
2022/04/26 07:54:11;;;;;;;0.60;0.60;;;11.30;99.90;;;;;;5104081;27;20450;-90
2022/04/26 07:56:39;;;;;;;1.60;0.53;;;11.40;99.90;;;;;;5104493;27;20472;-89
2022/04/26 07:59:06;;;;;;;0.40;0.30;;;11.60;99.90;;;;;;5108423;27;20517;-89
2022/04/26 08:01:35;;;;;;;0.83;0.43;;;11.50;99.90;;;;;;5103489;27;20491;-89
2022/04/26 08:04:04;;;;;;;0.50;0.50;;;11.50;99.90;;;;;;5105011;27;20466;-89
2022/04/26 08:06:31;;;;;;;1.13;0.50;;;11.60;99.90;;;;;;5100758;27;20482;-89
2022/04/26 08:08:58;;;;;;;1.63;0.50;;;11.70;99.90;;;;;;5102828;27;20466;-89
2022/04/26 08:11:25;;;;;;;0.30;0.20;;;11.80;99.90;;;;;;5103827;27;20467;-90
2022/04/26 08:13:52;;;;;;;0.30;0.20;;;11.50;99.30;;;;;;5107149;27;20462;-90
2022/04/26 08:16:19;;;;;;;1.93;1.83;;;11.60;99.90;;;;;;5109088;27;20455;-89
2022/04/26 08:18:46;;;;;;;1.33;0.57;;;11.60;98.50;;;;;;5110338;27;20556;-89
2022/04/26 08:21:15;;;;;;;0.30;0.20;;;11.70;99.00;;;;;;5108010;27;20518;-89
2022/04/26 08:29:08;;;;;;;0.40;0.30;;;12.20;98.50;;;;;;5115867;27;20511;-90
2022/04/26 08:31:37;;;;;;;0.30;0.20;;;12.20;98.10;;;;;;5108244;27;20484;-89
2022/04/26 08:34:04;;;;;;;0.30;0.20;;;12.20;98.40;;;;;;5109290;27;20510;-89
2022/04/26 08:36:33;;;;;;;0.70;0.40;;;12.30;97.90;;;;;;5110365;27;20455;-89
2022/04/26 08:39:00;;;;;;;0.30;0.20;;;12.30;97.30;;;;;;5107722;27;20467;-89
2022/04/26 08:41:27;;;;;;;0.50;0.50;;;12.50;97.40;;;;;;5104005;27;20797;-89
2022/04/26 08:43:54;;;;;;;0.50;0.50;;;12.60;97.60;;;;;;5104940;27;20459;-89
2022/04/26 08:46:21;;;;;;;0.30;0.20;;;12.80;98.60;;;;;;5107409;27;20494;-89
2022/04/26 08:51:34;;;;;;;1.13;0.90;;;12.80;98.10;;;;;;5103690;27;20867;-89
2022/04/26 08:54:01;;;;;;;0.40;0.30;;;13.00;98.60;;;;;;5107862;28;20525;-89
2022/04/26 08:56:28;;;;;;;0.83;0.83;;;13.00;99.50;;;;;;5117099;27;20455;-89
2022/04/26 08:58:55;;;;;;;0.40;0.40;;;13.20;98.70;;;;;;5111204;27;20867;-89
2022/04/26 09:01:25;;;;;;;0.40;0.23;;;12.90;97.20;;;;;;5110267;28;20555;-89
2022/04/26 09:03:56;;;;;;;0.37;0.30;;;12.70;96.90;;;;;;5110665;28;20478;-89
2022/04/26 09:06:25;;;;;;;0.33;0.20;;;12.60;96.80;;;;;;5111238;27;20484;-89
2022/04/26 09:09:06;;;;;;;1.80;1.70;;;12.60;96.20;;;;;;5111053;28;20468;-89
2022/04/26 09:11:34;;;;;;;0.40;0.40;;;12.70;96.30;;;;;;5105801;27;20467;-88
2022/04/26 09:14:02;;;;;;;0.40;0.30;;;12.70;96.50;;;;;;5120042;27;20481;-90
2022/04/26 09:16:29;;;;;;;0.30;0.20;;;12.40;95.90;;;;;;5127907;27;20488;-89
2022/04/26 09:18:58;;;;;;;0.30;0.20;;;12.30;96.00;;;;;;5143960;27;20480;-89
2022/04/26 09:21:27;;;;;;;0.50;0.30;;;12.40;95.90;;;;;;5136437;27;20455;-89
2022/04/26 09:23:57;;;;;;;0.43;0.43;;;12.30;96.00;;;;;;5116926;27;20471;-89
2022/04/26 09:26:25;;;;;;;0.30;0.20;;;12.60;95.30;;;;;;5114308;27;20474;-89
2022/04/26 09:28:52;;;;;;;0.30;0.20;;;12.80;95.00;;;;;;5116245;27;20903;-90
2022/04/26 09:31:21;;;;;;;0.70;0.20;;;12.60;94.60;;;;;;5117324;27;20508;-89
2022/04/26 09:33:51;;;;;;;0.30;0.20;;;12.60;95.30;;;;;;5111768;27;20601;-89
2022/04/26 09:36:20;;;;;;;0.40;0.30;;;12.60;95.40;;;;;;5104814;27;20456;-89
2022/04/26 09:38:51;;;;;;;0.30;0.20;;;12.60;95.80;;;;;;5106756;27;21014;-89
2022/04/26 09:41:21;;;;;;;0.30;0.20;;;12.50;95.90;;;;;;5116428;27;20471;-89
2022/04/26 09:44:01;;;;;;;0.30;0.20;;;12.50;96.30;;;;;;5112714;27;20919;-89
2022/04/26 09:46:47;;;;;;;0.30;0.10;;;12.50;96.40;;;;;;5113640;27;20490;-90
2022/04/26 09:49:15;;;;;;;0.30;0.20;;;12.50;96.70;;;;;;5117080;27;20458;-90
2022/04/26 09:51:43;;;;;;;1.17;0.30;;;12.70;96.20;;;;;;5109067;27;20482;-90
2022/04/26 09:54:10;;;;;;;0.40;0.33;;;12.50;95.10;;;;;;5111101;27;20501;-90
2022/04/26 09:56:39;;;;;;;0.30;0.20;;;12.40;95.90;;;;;;5103900;27;20457;-90
2022/04/26 09:59:06;;;;;;;5.60;0.70;;;12.60;96.10;;;;;;5111226;27;20538;-90
2022/04/26 10:01:41;;;;;;;0.30;0.20;;;12.50;94.60;;;;;;5114005;27;20455;-90
2022/04/26 10:04:09;;;;;;;0.30;0.20;;;12.50;94.70;;;;;;5114632;27;20546;-90
2022/04/26 10:06:37;;;;;;;0.30;0.20;;;12.50;95.50;;;;;;5121660;27;20538;-90
2022/04/26 10:09:06;;;;;;;0.40;0.30;;;12.60;94.90;;;;;;5124874;27;20459;-90
2022/04/26 10:11:34;;;;;;;0.30;0.20;;;12.80;94.90;;;;;;5106563;27;20468;-89
2022/04/26 10:14:05;;;;;;;0.30;0.20;;;12.80;94.70;;;;;;5113200;27;20566;-88
2022/04/26 10:16:34;;;;;;;0.80;0.30;;;13.10;95.60;;;;;;5116151;27;20466;-90
2022/04/26 10:19:06;;;;;;;1.00;0.53;;;13.00;95.00;;;;;;5111460;27;20537;-89
2022/04/26 10:21:49;;;;;;;0.50;0.50;;;13.30;96.00;;;;;;5109951;27;20814;-90
2022/04/26 10:24:21;;;;;;;0.30;0.20;;;13.60;95.30;;;;;;5111520;27;20517;-90
2022/04/26 10:26:49;;;;;;;0.33;0.20;;;14.00;95.10;;;;;;5113119;27;20544;-91
2022/04/26 10:29:22;;;;;;;0.47;0.33;;;14.30;94.30;;;;;;5112234;27;20472;-92
2022/04/26 10:31:59;;;;;;;0.30;0.20;;;14.40;93.20;;;;;;5121351;27;20441;-90
2022/04/26 10:34:30;;;;;;;0.50;0.40;;;14.40;94.30;;;;;;5112886;27;20454;-90
2022/04/26 10:37:01;;;;;;;0.40;0.37;;;14.40;93.00;;;;;;5117105;27;20508;-91
2022/04/26 10:39:31;;;;;;;0.73;0.50;;;14.10;93.40;;;;;;5109157;27;21482;-88
2022/04/26 10:41:58;;;;;;;0.30;0.30;;;13.90;94.50;;;;;;5108881;27;20561;-89
2022/04/26 10:44:30;;;;;;;0.30;0.20;;;13.90;94.00;;;;;;5106004;27;20478;-88
2022/04/26 10:47:24;;;;;;;0.30;0.20;;;14.00;93.50;;;;;;5109386;27;20481;-89
2022/04/26 10:49:52;;;;;;;0.67;0.67;;;13.90;93.80;;;;;;5109319;27;20555;-89
2022/04/26 10:52:50;;;;;;;0.30;0.23;;;13.90;92.90;;;;;;5107660;27;20466;-90
2022/04/26 10:55:19;;;;;;;0.50;0.47;;;13.90;93.10;;;;;;5115476;27;20468;-91
2022/04/26 10:57:57;;;;;;;0.30;0.30;;;14.20;93.50;;;;;;5110101;27;20465;-91
2022/04/26 11:00:37;;;;;;;0.60;0.60;;;14.40;93.70;;;;;;5105868;27;20852;-91
2022/04/26 11:03:08;;;;;;;0.60;0.30;;;14.30;93.10;;;;;;5110155;27;20450;-91
2022/04/26 11:05:35;;;;;;;0.30;0.20;;;14.20;92.00;;;;;;5114449;27;20517;-91
2022/04/26 11:08:05;;;;;;;0.33;0.23;;;14.20;91.40;;;;;;5110111;27;20470;-91
2022/04/26 11:13:20;;;;;;;0.43;0.43;;;14.80;91.60;;;;;;5109891;27;20469;-91
2022/04/26 11:15:49;;;;;;;0.30;0.20;;;14.50;91.20;;;;;;5106500;28;20496;-91
2022/04/26 11:18:22;;;;;;;0.40;0.30;;;14.60;92.50;;;;;;5107135;27;20522;-91
2022/04/26 11:20:49;;;;;;;0.30;0.20;;;14.70;92.30;;;;;;5115135;27;20474;-91
2022/04/26 11:29:22;;;;;;;0.30;0.20;;;15.70;91.30;;;;;;5109805;27;20486;-91
2022/04/26 11:31:51;;;;;;;1.03;0.53;;;15.80;91.10;;;;;;5103152;27;20462;-92
2022/04/26 11:34:18;;;;;;;1.80;1.03;;;16.00;90.70;;;;;;5106770;27;20509;-90
2022/04/26 11:36:46;;;;;;;3.60;1.60;;;15.60;90.50;;;;;;5112153;27;20460;-89
2022/04/26 11:39:13;;;;;;;0.40;0.40;;;15.90;91.20;;;;;;5105191;27;20477;-89
2022/04/26 11:41:40;;;;;;;0.70;0.50;;;16.20;91.20;;;;;;5107032;27;20867;-90
2022/04/26 11:44:07;;;;;;;0.40;0.30;;;16.40;91.30;;;;;;5109892;27;20463;-89
2022/04/26 11:46:34;;;;;;;0.40;0.27;;;16.30;90.40;;;;;;5118007;27;20491;-89
2022/04/26 11:49:04;;;;;;;0.33;0.30;;;16.10;89.30;;;;;;5119411;27;20533;-88
2022/04/26 11:51:31;;;;;;;0.60;0.40;;;16.20;91.00;;;;;;5112549;27;20460;-89
2022/04/26 11:53:58;;;;;;;0.30;0.20;;;16.30;90.90;;;;;;5113624;27;20458;-92
2022/04/26 11:56:26;;;;;;;0.43;0.43;;;16.40;89.70;;;;;;5111820;27;20466;-90
2022/04/26 11:58:54;;;;;;;0.47;0.30;;;16.20;91.00;;;;;;5115936;27;20488;-91
2022/04/26 12:01:21;;;;;;;0.40;0.30;;;16.30;91.50;;;;;;5114666;27;20559;-89
2022/04/26 12:03:52;;;;;;;0.90;0.50;;;16.60;91.60;;;;;;5114264;27;20484;-89
2022/04/26 12:06:21;;;;;;;1.57;0.57;;;17.10;90.00;;;;;;5111430;27;21014;-89
2022/04/26 12:08:50;;;;;;;2.50;0.87;;;16.30;91.10;;;;;;5117369;27;20548;-89
2022/04/26 12:11:20;;;;;;;0.83;0.40;;;16.20;91.20;;;;;;5104687;27;20473;-89
2022/04/26 12:13:59;;;;;;;0.60;0.30;;;16.00;90.90;;;;;;5113610;27;20460;-89
2022/04/26 12:16:26;;;;;;;0.40;0.40;;;15.70;92.20;;;;;;5107594;27;20486;-90
2022/04/26 12:18:55;;;;;;;1.03;0.90;;;16.20;92.60;;;;;;5107085;27;20473;-90
2022/04/26 12:21:26;;;;;;;1.23;1.13;;;16.60;91.50;;;;;;5117551;27;20445;-89
2022/04/26 12:24:14;;;;;;;0.90;0.83;;;16.40;92.00;;;;;;5107676;27;20470;-91
2022/04/26 12:26:55;;;;;;;1.33;0.57;;;16.40;91.90;;;;;;5108381;27;20485;-91
2022/04/26 12:29:24;;;;;;;0.40;0.30;;;16.60;92.50;;;;;;5111896;27;20464;-89
2022/04/26 12:31:51;;;;;;;0.37;0.27;;;16.30;92.30;;;;;;5112917;27;20476;-90
2022/04/26 12:34:19;;;;;;;0.80;0.47;;;16.10;92.10;;;;;;5114316;27;20460;-90
2022/04/26 12:36:55;;;;;;;0.90;0.40;;;16.00;92.30;;;;;;5106355;27;20943;-90
2022/04/26 12:39:23;;;;;;;0.40;0.40;;;15.60;92.00;;;;;;5101594;27;20939;-90
2022/04/26 12:41:51;;;;;;;0.40;0.30;;;15.30;92.80;;;;;;5117935;27;20468;-90
2022/04/26 12:44:19;;;;;;;0.40;0.40;;;14.90;92.70;;;;;;5134778;27;20471;-91
2022/04/26 12:50:27;;;;;;;0.60;0.47;;;14.70;93.50;;;;;;5124844;27;20478;-90
2022/04/26 12:52:55;;;;;;;0.30;0.20;;;14.40;94.60;;;;;;5082989;27;20459;-91
2022/04/26 12:55:26;;;;;;;0.40;0.30;;;14.60;95.10;;;;;;5118472;27;20455;-91
2022/04/26 12:57:55;;;;;;;1.20;1.07;;;14.90;94.80;;;;;;5113867;27;20457;-90
2022/04/26 13:00:24;;;;;;;0.80;0.50;;;15.00;94.40;;;;;;5116994;27;20773;-91
2022/04/26 13:02:52;;;;;;;0.60;0.57;;;15.00;94.40;;;;;;5120774;28;20469;-91
2022/04/26 13:05:21;;;;;;;1.13;0.70;;;15.10;95.20;;;;;;5110981;28;20809;-91
2022/04/26 13:07:48;;;;;;;1.30;1.07;;;15.20;95.00;;;;;;5112424;27;20495;-91
2022/04/26 13:10:18;;;;;;;0.40;0.30;;;15.20;95.50;;;;;;5117600;28;20522;-91
2022/04/26 13:12:46;;;;;;;0.83;0.83;;;15.60;94.90;;;;;;5106062;28;21086;-91
2022/04/26 13:15:15;;;;;;;0.57;0.30;;;15.70;94.70;;;;;;5111242;28;20482;-91
2022/04/26 13:17:44;;;;;;;1.07;0.57;;;15.70;95.40;;;;;;5112374;27;20502;-91
2022/04/26 13:20:12;;;;;;;0.60;0.60;;;16.00;96.20;;;;;;5113146;28;20969;-91
2022/04/26 13:22:39;;;;;;;1.80;0.40;;;15.80;97.50;;;;;;5112869;27;20461;-91
2022/04/26 13:25:07;;;;;;;1.63;1.63;;;16.10;99.30;;;;;;5120123;28;20480;-92
2022/04/26 13:27:38;;;;;;;1.47;1.23;;;16.00;99.90;;;;;;5114303;28;20484;-91
2022/04/26 13:30:07;;;;;;;0.30;0.20;;;16.20;99.20;;;;;;5116722;28;20932;-91
2022/04/26 13:32:34;;;;;;;0.70;0.60;;;16.30;98.30;;;;;;5111502;27;20520;-91
2022/04/26 13:35:02;;;;;;;0.30;0.30;;;16.20;98.50;;;;;;5107022;27;20533;-91
2022/04/26 13:37:29;;;;;;;0.40;0.33;;;16.00;97.90;;;;;;5103804;27;20943;-90
2022/04/26 13:39:58;;;;;;;1.23;1.13;;;16.00;98.00;;;;;;5106017;27;20929;-89
2022/04/26 13:42:27;;;;;;;2.20;1.70;;;16.10;98.00;;;;;;5111392;27;21931;-90
2022/04/26 13:44:55;;;;;;;1.17;0.30;;;16.20;97.60;;;;;;5113017;27;20464;-90
2022/04/26 13:47:23;;;;;;;1.37;1.27;;;16.10;97.30;;;;;;5111209;28;20495;-89
2022/04/26 13:49:51;;;;;;;0.97;0.30;;;15.70;97.90;;;;;;5110626;27;20549;-89
2022/04/26 13:52:20;;;;;;;0.90;0.80;;;15.50;98.20;;;;;;5114915;27;20711;-88
2022/04/26 13:54:47;;;;;;;0.70;0.67;;;15.40;98.80;;;;;;5118313;28;20821;-89
2022/04/26 13:57:14;;;;;;;0.63;0.63;;;15.20;99.70;;;;;;5120594;28;20453;-90
2022/04/26 13:59:41;;;;;;;1.33;0.30;;;15.00;98.70;;;;;;5119144;28;20464;-90
2022/04/26 14:02:11;;;;;;;1.83;1.73;;;15.10;99.00;;;;;;5111001;28;20964;-90
2022/04/26 14:04:38;;;;;;;0.93;0.77;;;15.30;98.20;;;;;;5114635;28;20464;-90
2022/04/26 14:07:05;;;;;;;1.67;1.47;;;15.40;98.10;;;;;;5118775;27;20492;-89
2022/04/26 14:09:33;;;;;;;0.40;0.30;;;15.20;98.30;;;;;;5109488;27;20471;-90
2022/04/26 14:12:00;;;;;;;0.60;0.30;;;15.00;98.50;;;;;;5121433;27;20526;-90
2022/04/26 14:22:43;;;;;;;0.30;0.23;;;14.70;99.90;;;;;;5117170;27;20758;-92
2022/04/26 14:25:12;;;;;;;0.57;0.33;;;14.90;99.90;;;;;;5120643;27;20461;-89
2022/04/26 14:27:41;;;;;;;0.30;0.20;;;15.00;99.90;;;;;;5117106;27;20498;-89
2022/04/26 14:30:11;;;;;;;2.93;1.80;;;14.90;99.90;;;;;;5121236;27;20523;-91
2022/04/26 14:32:39;;;;;;;0.43;0.40;;;15.00;99.90;;;;;;5118086;27;20476;-92
2022/04/26 14:35:08;;;;;;;0.40;0.40;;;14.90;99.90;;;;;;5111868;27;20475;-91
2022/04/26 14:37:35;;;;;;;0.50;0.50;;;15.00;99.90;;;;;;5115883;27;20458;-91
2022/04/26 14:40:03;;;;;;;0.50;0.50;;;14.80;99.90;;;;;;5120899;27;20471;-92
2022/04/26 14:42:30;;;;;;;0.37;0.33;;;14.50;99.90;;;;;;5110215;27;20507;-92
2022/04/26 14:44:57;;;;;;;2.10;2.00;;;14.20;99.90;;;;;;5109048;27;21043;-91
2022/04/26 14:47:26;;;;;;;0.40;0.30;;;14.10;99.90;;;;;;5125108;27;21007;-91
2022/04/26 14:49:56;;;;;;;0.50;0.50;;;13.90;99.90;;;;;;5125752;27;20468;-90
2022/04/26 14:52:23;;;;;;;0.50;0.23;;;13.90;99.90;;;;;;5116988;27;20588;-91
2022/04/26 14:54:50;;;;;;;0.53;0.30;;;13.80;99.90;;;;;;5115175;27;21083;-91
2022/04/26 14:57:18;;;;;;;3.43;0.60;;;13.90;99.90;;;;;;5118634;27;20537;-91
2022/04/26 14:59:48;;;;;;;1.53;1.43;;;13.80;99.90;;;;;;5109312;27;20989;-92
2022/04/26 15:02:17;;;;;;;1.47;1.10;;;13.80;99.90;;;;;;5124655;27;20602;-91
2022/04/26 15:04:45;;;;;;;0.57;0.47;;;13.80;99.90;;;;;;5118268;27;20549;-91
2022/04/26 15:07:13;;;;;;;0.40;0.40;;;13.60;99.90;;;;;;5113876;27;20869;-92
2022/04/26 15:09:46;;;;;;;0.87;0.60;;;13.70;99.90;;;;;;5107900;27;20544;-91
2022/04/26 15:17:48;;;;;;;0.30;0.23;;;13.50;99.90;;;;;;5120996;27;20471;-91
2022/04/26 15:20:16;;;;;;;1.60;0.40;;;13.20;99.90;;;;;;5127249;27;20506;-91
2022/04/26 15:22:46;;;;;;;0.33;0.23;;;13.30;99.90;;;;;;5124631;27;20499;-92
2022/04/26 15:25:13;;;;;;;0.83;0.33;;;13.30;99.90;;;;;;5124449;27;20468;-92
2022/04/26 15:27:41;;;;;;;0.30;0.20;;;13.30;99.90;;;;;;5121507;27;20545;-92
2022/04/26 15:30:09;;;;;;;0.90;0.90;;;13.10;99.90;;;;;;5113616;27;20534;-92
2022/04/26 15:32:37;;;;;;;1.70;0.43;;;13.10;99.90;;;;;;5116336;27;20797;-91
2022/04/26 15:35:05;;;;;;;1.43;0.30;;;12.80;99.90;;;;;;5113106;27;20477;-91
2022/04/26 15:37:32;;;;;;;0.53;0.43;;;12.70;99.90;;;;;;5115344;27;20813;-91
2022/04/26 15:40:00;;;;;;;1.30;0.67;;;12.60;99.90;;;;;;5111544;27;20526;-92
2022/04/26 15:42:27;;;;;;;0.83;0.57;;;12.50;99.90;;;;;;5112704;27;20866;-91
2022/04/26 15:44:54;;;;;;;0.40;0.40;;;12.50;99.90;;;;;;5118789;27;20468;-91
2022/04/26 15:47:21;;;;;;;0.30;0.20;;;12.50;99.90;;;;;;5108177;27;20537;-91
2022/04/26 15:49:48;;;;;;;0.40;0.30;;;12.40;99.90;;;;;;5103574;27;20449;-91
2022/04/26 15:52:15;;;;;;;3.53;2.40;;;12.50;99.90;;;;;;5115688;27;20540;-91
2022/04/26 15:54:43;;;;;;;1.87;1.77;;;12.40;99.90;;;;;;5108863;27;20965;-91
2022/04/26 15:57:12;;;;;;;0.30;0.30;;;12.30;99.90;;;;;;5113131;27;20456;-91
2022/04/26 15:59:40;;;;;;;2.93;1.50;;;12.30;99.90;;;;;;5109667;27;20461;-91
2022/04/26 16:02:08;;;;;;;0.30;0.20;;;12.30;99.90;;;;;;5111149;27;20803;-90
2022/04/26 16:04:36;;;;;;;0.40;0.20;;;12.30;99.90;;;;;;5106328;27;20458;-91
2022/04/26 16:07:03;;;;;;;0.50;0.50;;;12.20;99.90;;;;;;5118803;27;20499;-91
2022/04/26 16:20:34;;;;;;;11.63;0.80;;;11.80;99.90;;;;;;5114604;27;20578;-91
2022/04/26 16:23:03;;;;;;;0.40;0.30;;;11.70;99.90;;;;;;5106892;27;20930;-92
2022/04/26 16:25:30;;;;;;;1.90;0.30;;;11.70;99.90;;;;;;5103359;27;20588;-91
2022/04/26 16:28:01;;;;;;;0.43;0.43;;;11.70;99.90;;;;;;5104524;27;20488;-92
2022/04/26 16:30:29;;;;;;;0.37;0.27;;;11.70;99.90;;;;;;5103662;27;20939;-91
2022/04/26 16:32:57;;;;;;;0.60;0.40;;;11.70;99.90;;;;;;5102130;27;20470;-91
2022/04/26 16:35:25;;;;;;;0.30;0.20;;;11.60;99.90;;;;;;5103613;27;20551;-92
2022/04/26 16:37:52;;;;;;;0.50;0.27;;;10.70;99.90;;;;;;5105664;27;20464;-90
2022/04/26 16:40:19;;;;;;;0.30;0.10;;;9.60;99.90;;;;;;5107506;27;20453;-91
2022/04/26 16:42:46;;;;;;;0.30;0.20;;;8.90;99.90;;;;;;5105459;27;20473;-90
2022/04/26 16:45:14;;;;;;;0.30;0.10;;;8.30;99.90;;;;;;5110457;27;20539;-90
2022/04/26 16:47:42;;;;;;;0.30;0.10;;;7.90;99.90;;;;;;5104736;27;20484;-90
2022/04/26 16:50:10;;;;;;;0.30;0.20;;;7.70;99.90;;;;;;5106435;27;20545;-90
2022/04/26 16:52:37;;;;;;;0.30;0.17;;;7.60;99.90;;;;;;5103327;27;20506;-90
2022/04/26 16:55:05;;;;;;;0.30;0.10;;;7.60;99.90;;;;;;5106166;27;20864;-90
2022/04/26 16:57:32;;;;;;;0.30;0.20;;;7.40;99.90;;;;;;5105801;27;20494;-91
2022/04/26 16:59:59;;;;;;;0.30;0.10;;;7.40;99.90;;;;;;5103994;27;20518;-90
2022/04/26 17:02:28;;;;;;;0.30;0.10;;;7.40;99.90;;;;;;5098709;27;20464;-90
2022/04/26 17:04:56;;;;;;;0.30;0.10;;;7.30;99.90;;;;;;5102520;27;20490;-90
2022/04/26 17:07:25;;;;;;;0.30;0.10;;;7.20;99.90;;;;;;5112682;28;20728;-91
2022/04/26 17:09:52;;;;;;;0.30;0.17;;;7.20;99.90;;;;;;5109790;27;20533;-93
2022/04/26 17:12:19;;;;;;;0.30;0.10;;;7.20;99.90;;;;;;5116936;28;20450;-91
2022/04/26 17:14:46;;;;;;;0.30;0.10;;;7.10;99.90;;;;;;5105068;27;20467;-91
2022/04/26 17:17:13;;;;;;;1.37;1.27;;;7.10;99.90;;;;;;5107797;27;20533;-91
2022/04/26 17:19:41;;;;;;;0.30;0.10;;;7.10;99.90;;;;;;5101914;28;20487;-92
2022/04/26 17:22:09;;;;;;;0.30;0.10;;;7.10;99.90;;;;;;5105672;28;20526;-92